Time;durP1;ratioP1;P1;durP2;ratioP2;P2;SDS_P1;SDS_P2;PMS_P1;PMS_P2;Temp;Humidity;BMP_temperature;BMP_pressure;BME280_temperature;BME280_humidity;BME280_pressure;Samples;Min_cycle;Max_cycle;Signal;HPM_P1;HPM_P2
2021/10/21 00:00:22;;;;;;;10.93;9.82;;;;;;;;;;4955451;28;20964;-77
2021/10/21 00:02:50;;;;;;;12.43;10.73;;;;;;;;;;4952581;29;20086;-75
2021/10/21 00:05:18;;;;;;;14.70;10.85;;;;;;;;;;4955369;29;20044;-76
2021/10/21 00:07:47;;;;;;;14.52;11.15;;;;;;;;;;4954058;28;20044;-81
2021/10/21 00:10:16;;;;;;;16.77;12.90;;;;;;;;;;4956712;29;20039;-76
2021/10/21 00:12:44;;;;;;;20.27;15.45;;;;;;;;;;4956375;29;20043;-75
2021/10/21 00:15:14;;;;;;;28.67;21.63;;;;;;;;;;4956500;29;20035;-76
2021/10/21 00:17:42;;;;;;;25.00;19.85;;;;;;;;;;4955209;29;20408;-76
2021/10/21 00:20:11;;;;;;;16.77;14.13;;;;;;;;;;4955393;29;20058;-75
2021/10/21 00:22:42;;;;;;;14.32;11.77;;;;;;;;;;4956189;29;20441;-75
2021/10/21 00:25:10;;;;;;;15.05;11.15;;;;;;;;;;4956106;29;20142;-75
2021/10/21 00:27:37;;;;;;;17.63;12.20;;;;;;;;;;4955176;29;20445;-81
2021/10/21 00:30:05;;;;;;;15.00;10.82;;;;;;;;;;4954669;29;20051;-81
2021/10/21 00:32:32;;;;;;;13.18;10.82;;;;;;;;;;4954870;29;20062;-81
2021/10/21 00:35:00;;;;;;;15.35;10.43;;;;;;;;;;4955978;29;20047;-75
2021/10/21 00:37:27;;;;;;;17.40;10.68;;;;;;;;;;4954387;29;20466;-75
2021/10/21 00:39:57;;;;;;;12.60;9.82;;;;;;;;;;4956659;29;20044;-75
2021/10/21 00:42:24;;;;;;;17.75;10.32;;;;;;;;;;4956277;29;20544;-77
2021/10/21 00:44:52;;;;;;;13.07;10.20;;;;;;;;;;4954896;29;20039;-77
2021/10/21 00:47:20;;;;;;;15.73;10.07;;;;;;;;;;4954928;29;20603;-76
2021/10/21 00:49:47;;;;;;;15.40;9.70;;;;;;;;;;4955728;29;20043;-77
2021/10/21 00:52:18;;;;;;;10.13;8.85;;;;;;;;;;4955405;29;20043;-76
2021/10/21 00:54:46;;;;;;;11.05;9.57;;;;;;;;;;4955968;29;20055;-76
2021/10/21 00:57:14;;;;;;;12.18;9.40;;;;;;;;;;4954798;29;20047;-81
2021/10/21 00:59:45;;;;;;;12.30;9.50;;;;;;;;;;4955886;29;20043;-75
2021/10/21 01:02:13;;;;;;;10.85;9.20;;;;;;;;;;4955622;29;20053;-77
2021/10/21 01:04:42;;;;;;;15.43;9.55;;;;;;;;;;4955614;29;20039;-75
2021/10/21 01:07:11;;;;;;;12.48;8.95;;;;;;;;;;4955433;29;20130;-81
2021/10/21 01:09:42;;;;;;;12.15;9.15;;;;;;;;;;4954591;29;20057;-76
2021/10/21 01:12:10;;;;;;;12.20;9.32;;;;;;;;;;4954252;29;20058;-77
2021/10/21 01:14:39;;;;;;;11.15;9.68;;;;;;;;;;4955939;29;20049;-81
2021/10/21 01:17:07;;;;;;;12.38;9.27;;;;;;;;;;4938593;29;20055;-77
2021/10/21 01:19:35;;;;;;;13.15;10.13;;;;;;;;;;4955414;28;20043;-77
2021/10/21 01:22:03;;;;;;;13.30;9.80;;;;;;;;;;4954607;29;20473;-81
2021/10/21 01:24:30;;;;;;;13.07;10.02;;;;;;;;;;4955209;29;20039;-76
2021/10/21 01:26:58;;;;;;;15.77;10.00;;;;;;;;;;4955105;29;20046;-75
2021/10/21 01:29:26;;;;;;;17.30;11.18;;;;;;;;;;4953866;29;20055;-76
2021/10/21 01:31:55;;;;;;;13.60;10.48;;;;;;;;;;4955236;29;20047;-76
2021/10/21 01:34:23;;;;;;;14.15;10.20;;;;;;;;;;4954816;29;20047;-76
2021/10/21 01:36:52;;;;;;;12.55;10.20;;;;;;;;;;4953969;29;20047;-76
2021/10/21 01:39:21;;;;;;;13.30;10.07;;;;;;;;;;4955411;29;20512;-77
2021/10/21 01:41:49;;;;;;;15.55;9.73;;;;;;;;;;4938082;29;20043;-81
2021/10/21 01:44:17;;;;;;;11.35;10.10;;;;;;;;;;4955103;29;20074;-75
2021/10/21 01:46:44;;;;;;;13.10;9.60;;;;;;;;;;4954786;29;20122;-75
2021/10/21 01:49:14;;;;;;;11.60;9.43;;;;;;;;;;4954659;29;20058;-77
2021/10/21 01:51:41;;;;;;;11.82;9.10;;;;;;;;;;4954107;29;20043;-77
2021/10/21 01:54:10;;;;;;;13.88;9.65;;;;;;;;;;4953906;29;20047;-75
2021/10/21 01:56:37;;;;;;;12.40;10.05;;;;;;;;;;4953678;29;20166;-76
2021/10/21 01:59:04;;;;;;;11.50;9.95;;;;;;;;;;4955094;29;20040;-76
2021/10/21 02:01:32;;;;;;;11.93;9.43;;;;;;;;;;4953925;29;20506;-77
2021/10/21 02:04:00;;;;;;;13.10;9.35;;;;;;;;;;4954683;29;20408;-81
2021/10/21 02:06:28;;;;;;;12.70;9.50;;;;;;;;;;4954834;29;20043;-75
2021/10/21 02:08:58;;;;;;;12.05;9.57;;;;;;;;;;4953469;29;20517;-75
2021/10/21 02:11:26;;;;;;;12.88;9.50;;;;;;;;;;4955260;29;20074;-76
2021/10/21 02:13:56;;;;;;;14.05;9.88;;;;;;;;;;4954735;29;20054;-77
2021/10/21 02:16:27;;;;;;;11.77;9.40;;;;;;;;;;4955146;29;20408;-75
2021/10/21 02:18:54;;;;;;;14.52;10.35;;;;;;;;;;4954219;29;20047;-77
2021/10/21 02:21:22;;;;;;;13.02;10.15;;;;;;;;;;4954576;29;20035;-80
2021/10/21 02:23:52;;;;;;;17.00;9.60;;;;;;;;;;4954846;29;20127;-77
2021/10/21 02:26:20;;;;;;;14.55;9.55;;;;;;;;;;4954684;29;20044;-76
2021/10/21 02:28:48;;;;;;;12.75;10.30;;;;;;;;;;4954552;28;20485;-76
2021/10/21 02:31:16;;;;;;;13.57;9.68;;;;;;;;;;4957942;29;20047;-75
2021/10/21 02:33:43;;;;;;;14.55;9.13;;;;;;;;;;4958370;28;20044;-77
2021/10/21 02:36:11;;;;;;;15.45;10.45;;;;;;;;;;4957289;29;20046;-81
2021/10/21 02:38:38;;;;;;;12.32;9.77;;;;;;;;;;4958768;29;20054;-76
2021/10/21 02:41:06;;;;;;;11.60;9.68;;;;;;;;;;4958854;29;20067;-81
2021/10/21 02:43:35;;;;;;;13.57;10.88;;;;;;;;;;4957853;29;20043;-77
2021/10/21 02:46:04;;;;;;;12.68;10.25;;;;;;;;;;4957064;29;20123;-81
2021/10/21 02:48:32;;;;;;;16.45;12.02;;;;;;;;;;4956574;29;20430;-77
2021/10/21 02:51:01;;;;;;;19.08;11.30;;;;;;;;;;4957751;29;20066;-77
2021/10/21 02:53:31;;;;;;;12.00;9.90;;;;;;;;;;4956789;29;20102;-81
2021/10/21 02:55:58;;;;;;;24.75;16.45;;;;;;;;;;4958354;29;20040;-81
2021/10/21 02:58:26;;;;;;;23.33;14.73;;;;;;;;;;4958251;29;20051;-75
2021/10/21 03:00:55;;;;;;;13.00;10.95;;;;;;;;;;4957838;29;20074;-77
2021/10/21 03:03:23;;;;;;;15.75;10.13;;;;;;;;;;4956145;29;20394;-75
2021/10/21 03:05:50;;;;;;;17.77;10.43;;;;;;;;;;4957867;29;20122;-76
2021/10/21 03:08:18;;;;;;;15.40;11.50;;;;;;;;;;4957699;29;20050;-75
2021/10/21 03:10:48;;;;;;;15.93;12.40;;;;;;;;;;4956617;29;20051;-76
2021/10/21 03:13:19;;;;;;;15.27;9.93;;;;;;;;;;4957852;29;20094;-77
2021/10/21 03:15:47;;;;;;;14.07;10.70;;;;;;;;;;4956125;29;20142;-77
2021/10/21 03:18:14;;;;;;;18.15;11.80;;;;;;;;;;4957710;29;20122;-75
2021/10/21 03:20:43;;;;;;;17.17;11.98;;;;;;;;;;4958007;29;20043;-77
2021/10/21 03:23:14;;;;;;;13.13;10.85;;;;;;;;;;4957872;29;20126;-77
2021/10/21 03:25:41;;;;;;;13.25;10.10;;;;;;;;;;4956001;29;20054;-75
2021/10/21 03:28:09;;;;;;;15.93;10.65;;;;;;;;;;4956239;29;20039;-81
2021/10/21 03:30:40;;;;;;;12.35;10.98;;;;;;;;;;4956997;29;20126;-77
2021/10/21 03:33:08;;;;;;;13.93;10.82;;;;;;;;;;4957443;28;20053;-75
2021/10/21 03:35:37;;;;;;;15.35;11.73;;;;;;;;;;4956264;29;20156;-76
2021/10/21 03:38:05;;;;;;;13.75;9.43;;;;;;;;;;4956055;29;20049;-76
2021/10/21 03:40:32;;;;;;;13.05;9.60;;;;;;;;;;4956038;28;20106;-76
2021/10/21 03:43:01;;;;;;;12.68;9.82;;;;;;;;;;4957002;29;20164;-81
2021/10/21 03:45:29;;;;;;;12.82;9.90;;;;;;;;;;4955334;29;20044;-76
2021/10/21 03:47:56;;;;;;;14.88;10.27;;;;;;;;;;4957384;29;20074;-81
2021/10/21 03:50:25;;;;;;;13.60;10.02;;;;;;;;;;4956115;29;20065;-76
2021/10/21 03:52:53;;;;;;;10.82;9.73;;;;;;;;;;4956868;29;20047;-81
2021/10/21 03:55:23;;;;;;;15.00;10.52;;;;;;;;;;4957375;29;20050;-81
2021/10/21 03:57:52;;;;;;;14.50;10.90;;;;;;;;;;4956221;29;20053;-77
2021/10/21 04:00:20;;;;;;;14.13;10.30;;;;;;;;;;4956272;29;20496;-76
2021/10/21 04:02:48;;;;;;;14.02;10.75;;;;;;;;;;4955826;29;20047;-76
2021/10/21 04:05:18;;;;;;;11.55;9.88;;;;;;;;;;4955421;29;20496;-75
2021/10/21 04:07:46;;;;;;;15.10;9.77;;;;;;;;;;4956733;29;20047;-76
2021/10/21 04:10:13;;;;;;;12.25;9.85;;;;;;;;;;4955595;29;20058;-81
2021/10/21 04:12:41;;;;;;;11.50;9.75;;;;;;;;;;4956360;29;20043;-81
2021/10/21 04:15:09;;;;;;;15.20;10.35;;;;;;;;;;4956094;29;20040;-81
2021/10/21 04:17:38;;;;;;;10.55;9.30;;;;;;;;;;4956675;29;20050;-81
2021/10/21 04:20:06;;;;;;;10.95;8.88;;;;;;;;;;4955113;29;20044;-75
2021/10/21 04:22:34;;;;;;;11.30;8.93;;;;;;;;;;4957017;29;20047;-75
2021/10/21 04:25:02;;;;;;;11.07;8.70;;;;;;;;;;4955069;29;20043;-76
2021/10/21 04:27:30;;;;;;;11.45;9.23;;;;;;;;;;4955015;29;20084;-76
2021/10/21 04:30:01;;;;;;;11.63;9.20;;;;;;;;;;4955821;29;20086;-75
2021/10/21 04:32:31;;;;;;;10.57;8.95;;;;;;;;;;4956179;28;20130;-76
2021/10/21 04:35:00;;;;;;;15.82;10.65;;;;;;;;;;4955718;29;20061;-76
2021/10/21 04:37:28;;;;;;;15.50;11.27;;;;;;;;;;4954871;29;20100;-81
2021/10/21 04:39:56;;;;;;;14.13;11.13;;;;;;;;;;4955976;29;20054;-81
2021/10/21 04:42:23;;;;;;;14.32;10.88;;;;;;;;;;4954764;29;20505;-77
2021/10/21 04:44:51;;;;;;;13.45;10.52;;;;;;;;;;4954634;29;20504;-76
2021/10/21 04:47:21;;;;;;;14.90;9.70;;;;;;;;;;4956140;29;20043;-79
2021/10/21 04:49:48;;;;;;;11.77;9.45;;;;;;;;;;4955782;29;20218;-80
2021/10/21 04:52:16;;;;;;;12.85;8.93;;;;;;;;;;4954375;28;20527;-76
2021/10/21 04:54:44;;;;;;;10.05;8.65;;;;;;;;;;4954579;29;20390;-75
2021/10/21 04:57:11;;;;;;;11.32;8.10;;;;;;;;;;4954298;29;20063;-81
2021/10/21 04:59:39;;;;;;;10.05;8.25;;;;;;;;;;4955330;29;20039;-76
2021/10/21 05:02:09;;;;;;;9.90;7.53;;;;;;;;;;4955608;29;20405;-76
2021/10/21 05:04:38;;;;;;;11.48;7.60;;;;;;;;;;4954322;29;20050;-76
2021/10/21 05:07:09;;;;;;;10.57;7.82;;;;;;;;;;4954081;29;20050;-76
2021/10/21 05:09:37;;;;;;;9.63;8.23;;;;;;;;;;4955939;29;20047;-81
2021/10/21 05:12:05;;;;;;;12.90;7.25;;;;;;;;;;4955152;29;20580;-76
2021/10/21 05:14:32;;;;;;;9.93;7.45;;;;;;;;;;4955625;29;20058;-75
2021/10/21 05:17:01;;;;;;;9.00;6.47;;;;;;;;;;4955354;29;20074;-75
2021/10/21 05:19:28;;;;;;;8.85;6.78;;;;;;;;;;4955480;29;20047;-76
2021/10/21 05:21:56;;;;;;;10.68;7.20;;;;;;;;;;4955718;29;20126;-76
2021/10/21 05:24:24;;;;;;;8.55;6.28;;;;;;;;;;4953492;29;20394;-77
2021/10/21 05:26:54;;;;;;;7.80;6.28;;;;;;;;;;4953755;29;20039;-76
2021/10/21 05:29:26;;;;;;;10.40;6.07;;;;;;;;;;4954746;29;20047;-82
2021/10/21 05:31:54;;;;;;;7.82;6.13;;;;;;;;;;4954317;29;20043;-82
2021/10/21 05:34:21;;;;;;;6.80;6.00;;;;;;;;;;4954099;29;20112;-76
2021/10/21 05:36:49;;;;;;;6.28;5.25;;;;;;;;;;4953987;29;20043;-82
2021/10/21 05:39:17;;;;;;;7.25;6.07;;;;;;;;;;4955452;29;20049;-81
2021/10/21 05:41:48;;;;;;;9.52;5.65;;;;;;;;;;4953576;29;20047;-76
2021/10/21 05:44:15;;;;;;;7.80;5.85;;;;;;;;;;4954816;29;20401;-76
2021/10/21 05:46:45;;;;;;;7.18;5.85;;;;;;;;;;4937214;29;20054;-77
2021/10/21 05:49:12;;;;;;;8.02;5.63;;;;;;;;;;4954696;29;20046;-76
2021/10/21 05:51:40;;;;;;;6.80;5.72;;;;;;;;;;4953793;29;20085;-76
2021/10/21 05:54:08;;;;;;;12.13;6.78;;;;;;;;;;4954556;29;20049;-75
2021/10/21 05:56:36;;;;;;;11.07;6.35;;;;;;;;;;4952963;29;20047;-78
2021/10/21 05:59:04;;;;;;;12.45;6.57;;;;;;;;;;4953558;29;20070;-79
2021/10/21 06:01:37;;;;;;;14.55;7.88;;;;;;;;;;4954354;29;20044;-79
2021/10/21 06:04:05;;;;;;;13.65;8.50;;;;;;;;;;4954066;29;20043;-79
2021/10/21 06:06:37;;;;;;;9.40;7.10;;;;;;;;;;4953384;29;20070;-77
2021/10/21 06:09:05;;;;;;;16.48;10.73;;;;;;;;;;4953002;29;20051;-75
2021/10/21 06:11:36;;;;;;;24.23;7.90;;;;;;;;;;4954452;29;20070;-74
2021/10/21 06:14:09;;;;;;;9.02;5.68;;;;;;;;;;4938205;29;20051;-78
2021/10/21 06:16:36;;;;;;;;;;;;;;;;;;4957990;29;20059;-78
2021/10/21 06:19:04;;;;;;;8.30;5.03;;;;;;;;;;4952953;29;19929;-79
2021/10/21 06:21:32;;;;;;;9.02;6.32;;;;;;;;;;4954503;29;20053;-75
2021/10/21 06:24:02;;;;;;;11.68;5.60;;;;;;;;;;4952466;29;20098;-77
2021/10/21 06:26:33;;;;;;;12.90;6.88;;;;;;;;;;4953723;29;20465;-77
2021/10/21 06:29:02;;;;;;;8.95;5.70;;;;;;;;;;4953231;29;20058;-77
2021/10/21 06:31:29;;;;;;;7.10;5.65;;;;;;;;;;4953002;29;20054;-75
2021/10/21 06:34:01;;;;;;;6.75;5.88;;;;;;;;;;4953150;29;20074;-74
2021/10/21 06:36:29;;;;;;;9.85;6.85;;;;;;;;;;4954294;29;20142;-78
2021/10/21 06:38:56;;;;;;;7.90;5.78;;;;;;;;;;4952513;29;20138;-78
2021/10/21 06:41:24;;;;;;;8.60;6.82;;;;;;;;;;4952534;29;20050;-77
2021/10/21 06:43:52;;;;;;;9.82;5.90;;;;;;;;;;4954215;29;20051;-77
2021/10/21 06:46:19;;;;;;;6.95;4.95;;;;;;;;;;4953091;29;20454;-79
2021/10/21 06:48:48;;;;;;;7.32;4.53;;;;;;;;;;4952744;29;20047;-80
2021/10/21 06:51:16;;;;;;;4.82;4.35;;;;;;;;;;4954229;29;20043;-76
2021/10/21 06:53:44;;;;;;;4.88;4.30;;;;;;;;;;4953521;29;20047;-78
2021/10/21 06:56:11;;;;;;;6.45;4.72;;;;;;;;;;4952367;29;20055;-77
2021/10/21 06:58:39;;;;;;;5.22;4.10;;;;;;;;;;4952911;29;20472;-73
2021/10/21 07:01:06;;;;;;;4.38;3.97;;;;;;;;;;4953771;29;20036;-75
2021/10/21 07:03:37;;;;;;;5.55;3.97;;;;;;;;;;4953667;29;20126;-73
2021/10/21 07:06:05;;;;;;;6.72;4.18;;;;;;;;;;4954124;29;20059;-79
2021/10/21 07:08:32;;;;;;;4.68;4.00;;;;;;;;;;4952267;29;20051;-76
2021/10/21 07:11:01;;;;;;;5.45;4.30;;;;;;;;;;4953896;29;20054;-75
2021/10/21 07:13:29;;;;;;;6.03;4.30;;;;;;;;;;4952736;29;20449;-76
2021/10/21 07:16:08;;;;;;;7.95;4.28;;;;;;;;;;4937503;29;20051;-74
2021/10/21 07:18:36;;;;;;;6.60;4.43;;;;;;;;;;4957059;29;20156;-75
2021/10/21 07:21:04;;;;;;;10.05;4.63;;;;;;;;;;4940090;29;20039;-79
2021/10/21 07:23:31;;;;;;;5.25;4.45;;;;;;;;;;4955500;29;20138;-75
2021/10/21 07:25:59;;;;;;;10.63;7.63;;;;;;;;;;4924303;29;20052;-75
2021/10/21 07:28:27;;;;;;;5.82;3.75;;;;;;;;;;4956876;29;20449;-76
2021/10/21 07:30:57;;;;;;;8.45;4.32;;;;;;;;;;4955707;29;20429;-76
2021/10/21 07:33:26;;;;;;;6.13;4.82;;;;;;;;;;4956049;29;20106;-74
2021/10/21 07:35:59;;;;;;;5.43;3.78;;;;;;;;;;4956574;29;20095;-72
2021/10/21 07:38:28;;;;;;;4.50;3.35;;;;;;;;;;4956811;29;20043;-75
2021/10/21 07:40:58;;;;;;;6.47;3.55;;;;;;;;;;4956972;29;20086;-81
2021/10/21 07:43:26;;;;;;;4.53;3.55;;;;;;;;;;4955574;29;20142;-76
2021/10/21 07:45:54;;;;;;;7.35;3.13;;;;;;;;;;4956993;29;20051;-82
2021/10/21 07:48:22;;;;;;;3.83;3.40;;;;;;;;;;4957020;29;20420;-75
2021/10/21 07:50:52;;;;;;;13.93;10.95;;;;;;;;;;4956727;29;20053;-75
2021/10/21 07:53:20;;;;;;;5.13;3.13;;;;;;;;;;4955836;29;20122;-75
2021/10/21 07:55:48;;;;;;;6.30;3.42;;;;;;;;;;4955879;29;20047;-75
2021/10/21 07:58:17;;;;;;;4.07;3.00;;;;;;;;;;4957044;29;20043;-76
2021/10/21 08:00:45;;;;;;;5.85;3.30;;;;;;;;;;4957064;29;20042;-75
2021/10/21 08:03:12;;;;;;;3.55;3.10;;;;;;;;;;4956706;29;20039;-75
2021/10/21 08:05:42;;;;;;;3.92;3.08;;;;;;;;;;4953708;29;20062;-76
2021/10/21 08:08:10;;;;;;;3.72;2.90;;;;;;;;;;4956219;29;20106;-75
2021/10/21 08:10:38;;;;;;;3.35;3.05;;;;;;;;;;4955582;29;20050;-75
2021/10/21 08:13:05;;;;;;;3.35;3.00;;;;;;;;;;4954824;29;20146;-75
2021/10/21 08:15:33;;;;;;;4.57;3.05;;;;;;;;;;4956285;29;20094;-76
2021/10/21 08:18:01;;;;;;;3.60;3.20;;;;;;;;;;4955051;29;20077;-82
2021/10/21 08:20:32;;;;;;;5.93;3.22;;;;;;;;;;4956435;29;20406;-75
2021/10/21 08:23:01;;;;;;;4.20;2.93;;;;;;;;;;4954504;29;20425;-74
2021/10/21 08:25:29;;;;;;;4.25;3.13;;;;;;;;;;4956090;29;20050;-74
2021/10/21 08:27:56;;;;;;;5.30;3.25;;;;;;;;;;4995503;23;20057;-71
2021/10/21 08:30:25;;;;;;;3.72;2.90;;;;;;;;;;5034868;28;20041;-71
2021/10/21 08:32:57;;;;;;;5.03;3.20;;;;;;;;;;5053795;28;20037;-75
2021/10/21 08:35:28;;;;;;;6.68;3.42;;;;;;;;;;5053663;28;20128;-75
2021/10/21 08:38:00;;;;;;;6.95;3.78;;;;;;;;;;5053868;28;20033;-71
2021/10/21 08:40:28;;;;;;;;;;;;;;;;;;5036415;28;20049;-75
2021/10/21 08:42:55;;;;;;;24.10;4.50;;;;;;;;;;5053536;28;20016;-72
2021/10/21 08:45:26;;;;;;;8.15;3.08;;;;;;;;;;5053299;28;20508;-71
2021/10/21 08:48:01;;;;;;;3.60;3.00;;;;;;;;;;5054113;28;20088;-76
2021/10/21 08:50:32;;;;;;;4.00;3.60;;;;;;;;;;5053371;28;20052;-72
2021/10/21 08:53:00;;;;;;;8.32;3.17;;;;;;;;;;5053786;28;20044;-76
2021/10/21 08:55:30;;;;;;;3.88;3.15;;;;;;;;;;5053545;28;20528;-71
2021/10/21 08:58:00;;;;;;;3.97;3.00;;;;;;;;;;5053717;28;20056;-76
2021/10/21 09:00:27;;;;;;;4.45;3.22;;;;;;;;;;5053660;28;20432;-76
2021/10/21 09:03:14;;;;;;;4.43;3.22;;;;;;;;;;5052439;28;20043;-76
2021/10/21 09:05:51;;;;;;;6.05;3.08;;;;;;;;;;5052523;28;20037;-71
2021/10/21 09:08:20;;;;;;;7.43;3.38;;;;;;;;;;5035353;28;20045;-69
2021/10/21 09:10:54;;;;;;;4.82;3.00;;;;;;;;;;5053322;28;20054;-76
2021/10/21 09:13:26;;;;;;;4.80;2.97;;;;;;;;;;5053649;28;20511;-75
2021/10/21 09:15:56;;;;;;;5.70;3.10;;;;;;;;;;5053668;28;20041;-70
2021/10/21 09:18:43;;;;;;;3.60;3.25;;;;;;;;;;5035225;28;20048;-74
2021/10/21 09:21:29;;;;;;;6.28;3.30;;;;;;;;;;5053134;28;20041;-76
2021/10/21 09:23:58;;;;;;;5.07;3.08;;;;;;;;;;5053038;28;20040;-74
2021/10/21 09:26:26;;;;;;;3.95;3.30;;;;;;;;;;5053068;28;20136;-69
2021/10/21 09:28:54;;;;;;;8.38;3.15;;;;;;;;;;5052793;28;20060;-69
2021/10/21 09:31:29;;;;;;;4.22;3.20;;;;;;;;;;5053233;28;20049;-76
2021/10/21 09:33:58;;;;;;;3.83;3.40;;;;;;;;;;5053169;28;20045;-74
2021/10/21 09:36:25;;;;;;;4.03;3.20;;;;;;;;;;5053093;28;20045;-75
2021/10/21 09:38:57;;;;;;;6.20;3.50;;;;;;;;;;5052925;28;20049;-70
2021/10/21 09:41:30;;;;;;;4.90;3.00;;;;;;;;;;5052434;28;20509;-76
2021/10/21 09:43:58;;;;;;;3.60;3.17;;;;;;;;;;5052976;28;20072;-76
2021/10/21 09:46:38;;;;;;;4.38;3.00;;;;;;;;;;5052938;28;20091;-69
2021/10/21 09:49:15;;;;;;;3.55;2.70;;;;;;;;;;5052797;28;20045;-76
2021/10/21 09:51:43;;;;;;;3.72;2.97;;;;;;;;;;5052885;28;20134;-70
2021/10/21 09:54:11;;;;;;;5.35;3.08;;;;;;;;;;5035171;28;20056;-70
2021/10/21 09:56:57;;;;;;;3.83;3.03;;;;;;;;;;5052729;28;20048;-70
2021/10/21 09:59:26;;;;;;;5.80;3.40;;;;;;;;;;5052707;28;20059;-77
2021/10/21 10:01:57;;;;;;;3.83;3.35;;;;;;;;;;5034118;28;20497;-71
2021/10/21 10:04:26;;;;;;;3.53;3.20;;;;;;;;;;5052416;28;20504;-77
2021/10/21 10:06:59;;;;;;;6.40;4.63;;;;;;;;;;5052268;28;20115;-78
2021/10/21 10:09:33;;;;;;;5.55;3.97;;;;;;;;;;5052471;28;20072;-72
2021/10/21 10:12:04;;;;;;;5.50;4.40;;;;;;;;;;5051342;28;20144;-72
2021/10/21 10:14:47;;;;;;;4.32;3.10;;;;;;;;;;5050316;28;20045;-77
2021/10/21 10:17:22;;;;;;;3.45;3.15;;;;;;;;;;5049817;28;20128;-77
2021/10/21 10:19:50;;;;;;;3.53;3.17;;;;;;;;;;5033430;28;20095;-77
2021/10/21 10:22:25;;;;;;;4.32;3.40;;;;;;;;;;5051165;28;20068;-76
2021/10/21 10:24:54;;;;;;;3.90;3.50;;;;;;;;;;5052041;28;20043;-72
2021/10/21 10:27:32;;;;;;;3.45;3.15;;;;;;;;;;5034147;28;20045;-77
2021/10/21 10:30:01;;;;;;;5.95;3.40;;;;;;;;;;5053310;28;20119;-71
2021/10/21 10:32:38;;;;;;;6.95;3.20;;;;;;;;;;5051698;28;20041;-72
2021/10/21 10:35:07;;;;;;;4.90;3.40;;;;;;;;;;5034365;28;20533;-72
2021/10/21 10:37:56;;;;;;;3.95;3.20;;;;;;;;;;5037534;28;20041;-72
2021/10/21 10:40:56;;;;;;;3.72;3.15;;;;;;;;;;5052023;28;20466;-72
2021/10/21 10:43:39;;;;;;;6.70;3.28;;;;;;;;;;5016508;28;20056;-72
2021/10/21 10:46:12;;;;;;;5.10;3.30;;;;;;;;;;5033887;28;20048;-72
2021/10/21 10:48:51;;;;;;;4.47;3.10;;;;;;;;;;5051924;28;20055;-71
2021/10/21 10:51:21;;;;;;;3.40;3.10;;;;;;;;;;5053847;28;20068;-77
2021/10/21 10:54:01;;;;;;;;;;;;;;;;;;5040137;28;20123;-71
2021/10/21 10:56:40;;;;;;;4.93;3.20;;;;;;;;;;5056026;28;19921;-71
2021/10/21 10:59:35;;;;;;;4.85;3.47;;;;;;;;;;5037338;28;20075;-72
2021/10/21 11:02:21;;;;;;;3.20;2.92;;;;;;;;;;5053568;28;20098;-71
2021/10/21 11:04:52;;;;;;;3.90;3.50;;;;;;;;;;5037980;28;20136;-77
2021/10/21 11:07:24;;;;;;;3.00;2.80;;;;;;;;;;5055548;28;20098;-71
2021/10/21 11:10:19;;;;;;;3.72;3.22;;;;;;;;;;5037140;28;20095;-71
2021/10/21 11:12:49;;;;;;;5.30;3.03;;;;;;;;;;5045805;28;20055;-77
2021/10/21 11:15:29;;;;;;;3.58;3.28;;;;;;;;;;5054953;28;20055;-77
2021/10/21 11:17:58;;;;;;;9.23;3.65;;;;;;;;;;5037801;28;20091;-71
2021/10/21 11:20:29;;;;;;;5.57;3.30;;;;;;;;;;5054872;28;20037;-72
2021/10/21 11:23:07;;;;;;;4.80;2.90;;;;;;;;;;5055085;28;20044;-77
2021/10/21 11:25:39;;;;;;;4.90;2.85;;;;;;;;;;5037151;28;20075;-72
2021/10/21 11:28:07;;;;;;;4.20;3.15;;;;;;;;;;5054705;28;20049;-72
2021/10/21 11:30:40;;;;;;;3.20;2.90;;;;;;;;;;5055070;28;20461;-77
2021/10/21 11:33:12;;;;;;;3.70;3.17;;;;;;;;;;5054989;28;20044;-77
2021/10/21 11:35:43;;;;;;;6.20;4.83;;;;;;;;;;5055151;28;20072;-71
2021/10/21 11:38:18;;;;;;;3.67;2.80;;;;;;;;;;5051486;28;20041;-78
2021/10/21 11:40:50;;;;;;;3.15;2.88;;;;;;;;;;5044128;28;20043;-77
2021/10/21 11:43:22;;;;;;;;;;;;;;;;;;5055185;28;20048;-77
2021/10/21 11:46:00;;;;;;;3.17;2.90;;;;;;;;;;5055015;28;20357;-72
2021/10/21 11:48:33;;;;;;;3.20;2.90;;;;;;;;;;5037329;28;20107;-77
2021/10/21 11:51:03;;;;;;;5.05;3.00;;;;;;;;;;5021171;28;20125;-78
2021/10/21 11:53:31;;;;;;;2.97;2.67;;;;;;;;;;5037321;28;20125;-77
2021/10/21 11:55:59;;;;;;;6.57;3.13;;;;;;;;;;5054382;28;20072;-77
2021/10/21 11:58:34;;;;;;;3.00;2.80;;;;;;;;;;5054319;28;20080;-77
2021/10/21 12:01:09;;;;;;;4.13;3.15;;;;;;;;;;5054485;28;20059;-72
2021/10/21 12:03:39;;;;;;;5.30;2.60;;;;;;;;;;5020057;28;20049;-77
2021/10/21 12:06:16;;;;;;;5.60;3.10;;;;;;;;;;5054970;28;20493;-78
2021/10/21 12:08:51;;;;;;;2.90;2.70;;;;;;;;;;5054960;28;20492;-72
2021/10/21 12:11:19;;;;;;;2.92;2.67;;;;;;;;;;5036811;28;20095;-72
2021/10/21 12:13:48;;;;;;;4.28;3.10;;;;;;;;;;5054166;28;20044;-77
2021/10/21 12:16:20;;;;;;;3.47;2.88;;;;;;;;;;5037266;28;20059;-71
2021/10/21 12:19:00;;;;;;;3.38;2.80;;;;;;;;;;5054579;28;20037;-77
2021/10/21 12:21:36;;;;;;;3.55;2.90;;;;;;;;;;5036976;28;20040;-76
2021/10/21 12:24:26;;;;;;;3.03;2.80;;;;;;;;;;5054320;28;20132;-76
2021/10/21 12:26:58;;;;;;;2.88;2.58;;;;;;;;;;5054014;28;20041;-78
2021/10/21 12:29:45;;;;;;;2.80;2.45;;;;;;;;;;5054069;28;20057;-71
2021/10/21 12:32:15;;;;;;;3.42;2.80;;;;;;;;;;5036568;28;20098;-77
2021/10/21 12:34:45;;;;;;;2.80;2.60;;;;;;;;;;5036461;28;20091;-77
2021/10/21 12:37:13;;;;;;;3.33;3.00;;;;;;;;;;5053870;28;20140;-72
2021/10/21 12:39:41;;;;;;;3.25;2.97;;;;;;;;;;5054395;28;20141;-77
2021/10/21 12:42:11;;;;;;;5.03;3.20;;;;;;;;;;5053740;28;20043;-75
2021/10/21 12:44:40;;;;;;;3.72;3.42;;;;;;;;;;5053576;28;20045;-77
2021/10/21 12:47:08;;;;;;;3.55;3.00;;;;;;;;;;5036027;28;20047;-72
2021/10/21 12:49:37;;;;;;;4.97;3.30;;;;;;;;;;5036285;28;20116;-78
2021/10/21 12:52:12;;;;;;;3.90;3.08;;;;;;;;;;5053938;28;20070;-78
2021/10/21 12:54:43;;;;;;;3.38;3.13;;;;;;;;;;5035757;28;20453;-78
2021/10/21 12:57:16;;;;;;;3.78;2.80;;;;;;;;;;5053488;28;20559;-72
2021/10/21 12:59:43;;;;;;;3.95;2.90;;;;;;;;;;5052597;28;20188;-77
2021/10/21 13:02:15;;;;;;;4.68;2.92;;;;;;;;;;5035357;28;20117;-78
2021/10/21 13:04:44;;;;;;;3.63;2.83;;;;;;;;;;5035982;28;20047;-71
2021/10/21 13:07:13;;;;;;;8.90;3.05;;;;;;;;;;5053845;28;20045;-77
2021/10/21 13:09:45;;;;;;;3.78;3.10;;;;;;;;;;5048705;28;20502;-77
2021/10/21 13:12:18;;;;;;;3.58;3.20;;;;;;;;;;5034209;28;20144;-72
2021/10/21 13:14:49;;;;;;;5.88;3.40;;;;;;;;;;5016576;28;20073;-72
2021/10/21 13:17:20;;;;;;;3.88;3.30;;;;;;;;;;5016215;28;20069;-77
2021/10/21 13:19:51;;;;;;;4.15;2.78;;;;;;;;;;5016676;28;20041;-71
2021/10/21 13:22:18;;;;;;;4.05;2.88;;;;;;;;;;5033373;28;20042;-77
2021/10/21 13:24:47;;;;;;;3.38;3.05;;;;;;;;;;5033857;28;20124;-71
2021/10/21 13:27:15;;;;;;;3.00;2.70;;;;;;;;;;5016162;28;20107;-71
2021/10/21 13:29:46;;;;;;;3.45;3.10;;;;;;;;;;5033257;28;20061;-77
2021/10/21 13:32:15;;;;;;;3.50;3.08;;;;;;;;;;5015491;28;20153;-77
2021/10/21 13:34:45;;;;;;;4.32;3.00;;;;;;;;;;5031520;28;20065;-78
2021/10/21 13:37:14;;;;;;;3.70;2.85;;;;;;;;;;5031248;28;20057;-77
2021/10/21 13:39:43;;;;;;;5.97;3.55;;;;;;;;;;5015064;28;20120;-72
2021/10/21 13:42:11;;;;;;;2.95;2.75;;;;;;;;;;5032477;28;20156;-72
2021/10/21 13:44:39;;;;;;;3.00;2.72;;;;;;;;;;5032428;28;20065;-78
2021/10/21 13:47:09;;;;;;;3.00;2.70;;;;;;;;;;5015590;28;20037;-72
2021/10/21 13:49:38;;;;;;;4.22;3.10;;;;;;;;;;5014414;28;20050;-72
2021/10/21 13:52:06;;;;;;;3.47;2.88;;;;;;;;;;5032224;28;20052;-75
2021/10/21 13:54:34;;;;;;;3.10;2.90;;;;;;;;;;5032388;28;20076;-70
2021/10/21 13:57:02;;;;;;;3.45;2.65;;;;;;;;;;5032059;28;20502;-78
2021/10/21 13:59:31;;;;;;;2.70;2.50;;;;;;;;;;4998303;28;20041;-71
2021/10/21 14:01:58;;;;;;;3.15;2.85;;;;;;;;;;5032397;28;20063;-78
2021/10/21 14:04:26;;;;;;;3.60;3.08;;;;;;;;;;5014804;28;20136;-78
2021/10/21 14:06:57;;;;;;;2.75;2.55;;;;;;;;;;5014130;28;20084;-72
2021/10/21 14:09:26;;;;;;;5.25;2.97;;;;;;;;;;5031589;28;20076;-75
2021/10/21 14:11:54;;;;;;;3.67;3.10;;;;;;;;;;5031385;28;20038;-70
2021/10/21 14:14:22;;;;;;;3.92;2.95;;;;;;;;;;5032216;28;20072;-76
2021/10/21 14:16:50;;;;;;;3.35;2.92;;;;;;;;;;5014769;28;20565;-70
2021/10/21 14:19:20;;;;;;;2.83;2.60;;;;;;;;;;5031915;28;20116;-70
2021/10/21 14:21:48;;;;;;;5.43;2.70;;;;;;;;;;5031713;28;20038;-76
2021/10/21 14:24:16;;;;;;;3.10;2.60;;;;;;;;;;5032314;28;20495;-75
2021/10/21 14:26:45;;;;;;;3.75;3.17;;;;;;;;;;5034560;28;20144;-74
2021/10/21 14:29:13;;;;;;;7.28;2.92;;;;;;;;;;5035667;28;20053;-75
2021/10/21 14:31:41;;;;;;;2.72;2.40;;;;;;;;;;5035915;28;20095;-70
2021/10/21 14:34:10;;;;;;;2.70;2.45;;;;;;;;;;5035921;28;20665;-75
2021/10/21 14:36:37;;;;;;;3.25;2.67;;;;;;;;;;5035141;28;20487;-69
2021/10/21 14:39:06;;;;;;;4.22;2.40;;;;;;;;;;5035385;28;20034;-75
2021/10/21 14:41:33;;;;;;;3.58;2.45;;;;;;;;;;5034570;28;20058;-75
2021/10/21 14:44:02;;;;;;;4.90;2.55;;;;;;;;;;5035449;28;20501;-76
2021/10/21 14:46:32;;;;;;;3.92;2.80;;;;;;;;;;5018063;28;20069;-75
2021/10/21 14:48:59;;;;;;;3.58;2.70;;;;;;;;;;5001489;28;20526;-70
2021/10/21 14:51:28;;;;;;;3.45;2.70;;;;;;;;;;5034755;28;20121;-76